createdAt,value
2023-02-14T00:07:01.779Z,4.00
2023-02-14T00:27:01.803Z,3.75
2023-02-14T00:47:01.776Z,3.87
2023-02-14T01:07:01.786Z,4.18
2023-02-14T01:27:01.783Z,4.12
2023-02-14T01:47:01.792Z,4.12
2023-02-14T02:07:01.770Z,3.50
2023-02-14T02:27:01.774Z,3.56
2023-02-14T02:47:01.769Z,3.81
2023-02-14T03:07:01.768Z,3.68
2023-02-14T03:27:01.784Z,3.68
2023-02-14T03:47:01.759Z,4.00
2023-02-14T04:07:01.753Z,3.75
2023-02-14T04:27:01.762Z,3.81
2023-02-14T04:47:01.754Z,3.87
2023-02-14T05:07:01.751Z,3.81
2023-02-14T05:27:01.746Z,3.75
2023-02-14T05:47:01.750Z,3.68
2023-02-14T06:07:01.747Z,3.87
2023-02-14T06:27:01.758Z,3.93
2023-02-14T06:47:01.750Z,3.87
2023-02-14T07:07:01.764Z,3.75
2023-02-14T07:27:01.752Z,4.00
2023-02-14T07:47:01.746Z,3.87
2023-02-14T08:07:01.740Z,3.93
2023-02-14T08:27:01.734Z,3.87
2023-02-14T08:47:01.710Z,3.62
2023-02-14T09:07:01.931Z,3.62
2023-02-14T09:27:01.704Z,3.68
2023-02-14T09:47:01.707Z,3.68
2023-02-14T10:07:01.772Z,3.68
2023-02-14T10:27:01.713Z,3.81
2023-02-14T10:47:01.710Z,3.87
2023-02-14T11:07:01.792Z,3.81
2023-02-14T11:27:01.707Z,4.06
2023-02-14T11:47:01.715Z,4.12
2023-02-14T12:07:01.710Z,4.00
2023-02-14T12:27:01.712Z,4.18
2023-02-14T12:47:01.673Z,4.25
2023-02-14T13:07:01.697Z,4.25
2023-02-14T13:47:01.649Z,4.00
2023-02-14T14:07:01.666Z,4.43
2023-02-14T14:27:01.648Z,4.00
2023-02-14T14:47:01.649Z,4.12
2023-02-14T15:07:01.633Z,4.18
2023-02-14T15:27:01.635Z,4.18
2023-02-14T15:47:01.634Z,4.06
2023-02-14T16:07:01.624Z,4.12
2023-02-14T16:27:01.615Z,4.25
2023-02-14T16:47:01.612Z,4.06
2023-02-14T17:07:01.606Z,3.93
2023-02-14T17:27:01.605Z,3.93
2023-02-14T17:47:01.600Z,4.18
2023-02-14T18:07:01.590Z,4.06
2023-02-14T18:27:01.594Z,3.75
2023-02-14T18:47:01.575Z,3.81
2023-02-14T19:07:01.573Z,3.68
2023-02-14T19:27:01.578Z,4.00
2023-02-14T19:47:01.681Z,3.75
2023-02-14T20:07:01.581Z,3.62
2023-02-14T20:27:01.557Z,3.62
2023-02-14T20:47:01.596Z,3.81
2023-02-14T21:07:01.564Z,3.62
2023-02-14T21:27:01.683Z,3.62
2023-02-14T21:47:01.687Z,3.75
2023-02-14T22:07:01.609Z,3.75
2023-02-14T22:27:01.669Z,3.62
2023-02-14T22:47:01.573Z,3.62
2023-02-14T23:07:01.564Z,3.68
2023-02-14T23:27:01.561Z,3.68
2023-02-14T23:47:01.532Z,3.75
